Time;durP1;ratioP1;P1;durP2;ratioP2;P2;SDS_P1;SDS_P2;PMS_P1;PMS_P2;Temp;Humidity;BMP_temperature;BMP_pressure;BME280_temperature;BME280_humidity;BME280_pressure;Samples;Min_cycle;Max_cycle;Signal;HPM_P1;HPM_P2
2023/09/07 00:01:23;;;;;;;9.87;8.20;;;18.70;99.90;;;;;;5034682;28;20314;-55
2023/09/07 00:03:48;;;;;;;9.93;8.83;;;18.70;99.90;;;;;;5033789;28;20179;-53
2023/09/07 00:06:14;;;;;;;10.40;8.83;;;18.60;83.50;;;;;;5034848;28;20219;-54
2023/09/07 00:08:39;;;;;;;8.77;7.77;;;18.60;1.00;;;;;;5035558;28;20183;-54
2023/09/07 00:11:06;;;;;;;8.53;7.67;;;18.60;99.90;;;;;;5035103;28;20176;-55
2023/09/07 00:13:32;;;;;;;11.80;8.27;;;18.60;1.00;;;;;;5034254;28;20248;-55
2023/09/07 00:16:00;;;;;;;10.20;7.70;;;18.70;99.90;;;;;;5034348;28;20488;-54
2023/09/07 00:18:26;;;;;;;8.57;7.37;;;18.60;1.00;;;;;;5033858;28;20473;-55
2023/09/07 00:20:51;;;;;;;8.97;8.13;;;18.60;1.00;;;;;;5034137;28;20423;-55
2023/09/07 00:23:17;;;;;;;10.03;8.77;;;18.60;99.90;;;;;;5031604;28;20203;-53
2023/09/07 00:25:43;;;;;;;9.90;8.40;;;18.60;13.30;;;;;;5033264;28;20222;-54
2023/09/07 00:28:08;;;;;;;9.33;8.47;;;18.50;1.00;;;;;;5032887;28;20678;-54
2023/09/07 00:30:34;;;;;;;10.07;8.07;;;18.50;99.90;;;;;;5034167;28;20180;-54
2023/09/07 00:32:59;;;;;;;9.17;8.23;;;18.40;99.90;;;;;;5034076;28;20199;-54
2023/09/07 00:35:25;;;;;;;9.13;8.13;;;18.40;1.00;;;;;;5034173;28;20202;-54
2023/09/07 00:37:51;;;;;;;9.50;8.07;;;18.30;99.90;;;;;;5033944;28;20186;-54
2023/09/07 00:40:17;;;;;;;17.53;9.07;;;18.20;1.00;;;;;;5039710;28;20915;-54
2023/09/07 00:42:42;;;;;;;10.60;8.20;;;18.10;1.00;;;;;;5034665;28;20182;-55
2023/09/07 00:45:08;;;;;;;11.00;8.83;;;18.10;1.00;;;;;;5033987;28;20571;-54
2023/09/07 00:47:37;;;;;;;9.57;8.57;;;18.00;99.90;;;;;;5035263;28;20218;-54
2023/09/07 00:50:04;;;;;;;10.67;9.67;;;17.90;1.00;;;;;;5033623;28;20430;-54
2023/09/07 00:52:30;;;;;;;13.33;8.60;;;17.90;1.00;;;;;;5033713;28;20788;-55
2023/09/07 00:54:56;;;;;;;8.70;7.90;;;17.80;1.00;;;;;;5034125;28;20441;-55
2023/09/07 00:57:22;;;;;;;9.33;8.43;;;17.80;1.00;;;;;;5034329;28;20433;-54
2023/09/07 00:59:47;;;;;;;9.60;8.70;;;17.80;25.20;;;;;;5034231;28;20611;-54
2023/09/07 01:02:13;;;;;;;10.13;9.07;;;17.80;92.60;;;;;;5033880;28;20188;-54
2023/09/07 01:04:38;;;;;;;10.43;9.33;;;17.80;99.90;;;;;;5033908;28;20186;-55
2023/09/07 01:07:18;;;;;;;12.80;9.13;;;17.80;99.90;;;;;;5034292;28;20223;-54
2023/09/07 01:09:46;;;;;;;9.87;8.87;;;17.70;99.90;;;;;;5034221;28;20177;-54
2023/09/07 01:12:15;;;;;;;9.80;8.80;;;17.70;99.90;;;;;;5029575;28;21240;-54
2023/09/07 01:14:41;;;;;;;12.13;9.63;;;17.70;99.90;;;;;;5032603;28;20442;-55
2023/09/07 01:17:08;;;;;;;9.57;8.67;;;17.70;99.90;;;;;;5032539;28;20472;-55
2023/09/07 01:19:34;;;;;;;10.30;8.10;;;17.70;99.90;;;;;;5033542;28;20191;-54
2023/09/07 01:22:01;;;;;;;10.43;9.43;;;17.70;99.90;;;;;;5033285;28;20542;-54
2023/09/07 01:24:29;;;;;;;10.20;9.10;;;17.60;99.90;;;;;;5032206;28;20329;-54
2023/09/07 01:26:59;;;;;;;11.87;8.90;;;17.60;99.90;;;;;;5032313;28;20480;-54
2023/09/07 01:29:26;;;;;;;10.63;8.50;;;17.60;99.90;;;;;;5032892;28;20468;-55
2023/09/07 01:31:52;;;;;;;10.83;9.53;;;17.60;99.90;;;;;;5032213;28;20442;-54
2023/09/07 01:34:18;;;;;;;16.70;8.70;;;17.60;99.90;;;;;;5031838;28;20440;-55
2023/09/07 01:36:44;;;;;;;10.50;8.80;;;17.50;99.90;;;;;;5032988;28;20432;-54
2023/09/07 01:39:09;;;;;;;11.40;8.83;;;17.50;99.90;;;;;;5028964;28;20302;-55
2023/09/07 01:41:35;;;;;;;9.93;8.90;;;17.50;99.90;;;;;;5031380;28;20182;-55
2023/09/07 01:44:00;;;;;;;11.13;9.13;;;17.50;99.90;;;;;;5028567;28;20188;-54
2023/09/07 01:46:26;;;;;;;9.93;8.93;;;17.50;99.90;;;;;;5030842;28;20225;-54
2023/09/07 01:48:52;;;;;;;10.17;9.20;;;17.50;99.90;;;;;;5031204;28;20783;-54
2023/09/07 01:51:17;;;;;;;12.00;10.00;;;17.50;99.90;;;;;;5030875;28;20201;-54
2023/09/07 01:53:43;;;;;;;9.63;8.73;;;17.50;99.90;;;;;;5031848;28;20667;-54
2023/09/07 01:56:09;;;;;;;11.80;8.40;;;17.40;99.90;;;;;;5032124;28;20655;-54
2023/09/07 01:58:36;;;;;;;8.87;8.07;;;17.40;99.90;;;;;;5031910;28;20201;-54
2023/09/07 02:01:02;;;;;;;10.83;8.63;;;17.40;99.90;;;;;;5032136;28;20484;-54
2023/09/07 02:03:27;;;;;;;9.17;8.27;;;17.40;99.90;;;;;;5032015;28;20524;-54
2023/09/07 02:05:54;;;;;;;9.60;8.20;;;17.30;99.90;;;;;;5029361;28;20217;-54
2023/09/07 02:08:19;;;;;;;10.20;9.30;;;17.30;99.90;;;;;;5030711;28;20205;-54
2023/09/07 02:10:45;;;;;;;11.07;9.90;;;17.30;99.90;;;;;;5028769;28;20529;-54
2023/09/07 02:13:11;;;;;;;9.07;8.10;;;17.20;99.90;;;;;;5030583;28;20263;-54
2023/09/07 02:15:40;;;;;;;10.00;9.00;;;17.20;99.90;;;;;;5030760;28;20277;-55
2023/09/07 02:18:06;;;;;;;9.37;8.40;;;17.20;99.90;;;;;;5031998;28;20791;-54
2023/09/07 02:20:34;;;;;;;10.00;9.00;;;17.20;99.90;;;;;;5032267;28;20457;-55
2023/09/07 02:23:00;;;;;;;10.47;8.80;;;17.10;99.90;;;;;;5030433;28;20582;-54
2023/09/07 02:25:27;;;;;;;11.03;8.53;;;17.10;99.90;;;;;;5030695;28;20598;-54
2023/09/07 02:27:53;;;;;;;10.43;9.43;;;17.10;99.90;;;;;;5031075;28;20442;-54
2023/09/07 02:30:18;;;;;;;10.20;9.27;;;17.00;99.90;;;;;;5031517;28;20443;-54
2023/09/07 02:32:44;;;;;;;10.83;8.80;;;17.00;99.90;;;;;;5030624;28;21017;-52
2023/09/07 02:35:10;;;;;;;12.47;9.43;;;17.00;99.90;;;;;;5031434;28;20229;-54
2023/09/07 02:37:36;;;;;;;9.57;8.53;;;17.00;99.90;;;;;;5028766;28;20221;-53
2023/09/07 02:40:06;;;;;;;10.40;8.97;;;17.00;99.90;;;;;;5028906;28;20247;-54
2023/09/07 02:42:32;;;;;;;11.83;9.30;;;16.90;99.90;;;;;;5029985;28;20522;-54
2023/09/07 02:44:58;;;;;;;10.23;8.67;;;16.90;99.90;;;;;;5030598;28;20538;-54
2023/09/07 02:47:23;;;;;;;9.83;8.90;;;16.80;99.90;;;;;;5034367;28;20186;-54
2023/09/07 02:49:49;;;;;;;12.70;9.10;;;16.80;99.90;;;;;;5036965;28;20610;-53
2023/09/07 02:52:14;;;;;;;12.60;9.30;;;16.70;99.90;;;;;;5035036;28;20195;-54
2023/09/07 02:54:41;;;;;;;8.90;8.10;;;16.70;99.90;;;;;;5034095;28;20219;-54
2023/09/07 02:57:07;;;;;;;9.20;8.20;;;16.60;99.90;;;;;;5035470;28;20570;-55
2023/09/07 02:59:33;;;;;;;9.47;8.53;;;16.60;99.90;;;;;;5036231;28;20432;-54
2023/09/07 03:01:58;;;;;;;14.40;8.60;;;16.50;99.90;;;;;;5033646;28;20681;-55
2023/09/07 03:04:24;;;;;;;10.00;9.00;;;16.50;99.90;;;;;;5035272;28;20210;-54
2023/09/07 03:06:49;;;;;;;9.73;8.83;;;16.40;99.90;;;;;;5035444;28;20226;-54
2023/09/07 03:09:15;;;;;;;9.93;8.90;;;16.40;99.90;;;;;;5036039;28;20276;-54
2023/09/07 03:11:41;;;;;;;9.90;8.90;;;16.30;99.90;;;;;;5034948;28;20189;-54
2023/09/07 03:14:06;;;;;;;9.63;8.50;;;16.30;99.90;;;;;;5034854;28;20188;-54
2023/09/07 03:16:32;;;;;;;9.77;8.53;;;16.30;99.90;;;;;;5035151;28;20195;-54
2023/09/07 03:18:57;;;;;;;10.77;9.37;;;16.20;99.90;;;;;;5035441;28;20189;-54
2023/09/07 03:21:29;;;;;;;9.97;9.07;;;16.20;99.90;;;;;;5034344;28;20239;-54
2023/09/07 03:23:57;;;;;;;10.03;9.03;;;16.20;99.90;;;;;;5035648;28;20637;-53
2023/09/07 03:26:23;;;;;;;13.60;9.40;;;16.20;99.90;;;;;;5034023;28;20619;-54
2023/09/07 03:28:49;;;;;;;10.90;9.23;;;16.10;99.90;;;;;;5034459;28;20918;-53
2023/09/07 03:31:15;;;;;;;9.77;8.87;;;16.10;99.90;;;;;;5034873;28;20193;-54
2023/09/07 03:33:40;;;;;;;11.20;10.10;;;16.00;99.90;;;;;;5035895;28;20524;-53
2023/09/07 03:36:06;;;;;;;12.70;10.33;;;16.00;99.90;;;;;;5034373;28;20437;-55
2023/09/07 03:38:31;;;;;;;11.07;9.77;;;16.00;99.90;;;;;;5034520;28;20195;-54
2023/09/07 03:40:57;;;;;;;11.90;9.97;;;15.90;99.90;;;;;;5035463;28;20195;-53
2023/09/07 03:43:22;;;;;;;11.37;10.00;;;15.90;99.90;;;;;;5035405;28;20235;-54
2023/09/07 03:45:48;;;;;;;13.63;9.30;;;15.90;99.90;;;;;;5033910;28;20584;-53
2023/09/07 03:48:14;;;;;;;11.13;9.93;;;15.80;99.90;;;;;;5034872;28;20190;-53
2023/09/07 03:50:39;;;;;;;10.60;9.60;;;15.80;99.90;;;;;;5033333;28;20653;-54
2023/09/07 03:53:05;;;;;;;11.03;9.90;;;15.70;99.90;;;;;;5034524;28;20262;-54
2023/09/07 03:55:41;;;;;;;11.90;10.70;;;15.70;99.90;;;;;;5034101;28;20216;-54
2023/09/07 03:58:06;;;;;;;11.20;10.20;;;15.70;99.90;;;;;;5041009;28;20184;-53
2023/09/07 04:00:32;;;;;;;12.10;10.40;;;15.70;99.90;;;;;;5032933;28;20564;-53
2023/09/07 04:02:57;;;;;;;11.90;10.67;;;15.70;99.90;;;;;;5033749;28;20191;-54
2023/09/07 04:05:23;;;;;;;11.63;10.43;;;15.70;99.90;;;;;;5034102;28;20215;-54
2023/09/07 04:07:50;;;;;;;11.60;10.50;;;15.70;99.90;;;;;;5033364;28;20656;-54
2023/09/07 04:10:16;;;;;;;12.60;9.50;;;15.60;99.90;;;;;;5032282;28;20633;-54
2023/09/07 04:12:41;;;;;;;11.33;10.33;;;15.60;99.90;;;;;;5033876;28;20432;-53
2023/09/07 04:15:07;;;;;;;13.30;10.93;;;15.50;99.90;;;;;;5034914;28;20198;-54
2023/09/07 04:17:39;;;;;;;13.40;10.13;;;15.50;99.90;;;;;;5034020;28;20190;-55
2023/09/07 04:20:07;;;;;;;13.10;10.30;;;15.50;99.90;;;;;;5033898;28;20478;-53
2023/09/07 04:22:33;;;;;;;12.97;10.80;;;15.40;99.90;;;;;;5033976;28;20515;-53
2023/09/07 04:24:58;;;;;;;11.87;10.63;;;15.30;99.90;;;;;;5031127;28;20470;-56
2023/09/07 04:27:24;;;;;;;12.60;10.57;;;15.30;99.90;;;;;;5034463;28;20689;-55
2023/09/07 04:29:49;;;;;;;12.20;10.83;;;15.30;99.90;;;;;;5034373;28;20548;-55
2023/09/07 04:32:15;;;;;;;13.03;11.00;;;15.20;99.90;;;;;;5033989;28;20184;-54
2023/09/07 04:34:41;;;;;;;11.83;10.63;;;15.20;99.90;;;;;;5034814;28;20696;-53
2023/09/07 04:37:06;;;;;;;11.50;10.30;;;15.30;99.90;;;;;;5031947;28;20187;-54
2023/09/07 04:39:32;;;;;;;13.93;10.50;;;15.20;99.90;;;;;;5032989;28;20186;-54
2023/09/07 04:41:57;;;;;;;12.43;10.70;;;15.20;99.90;;;;;;5032835;28;20406;-54
2023/09/07 04:44:23;;;;;;;13.10;11.33;;;15.10;99.90;;;;;;5030100;28;20238;-54
2023/09/07 04:46:49;;;;;;;12.53;11.10;;;15.10;99.90;;;;;;5033436;28;20223;-54
2023/09/07 04:49:15;;;;;;;12.63;11.37;;;15.20;99.90;;;;;;5034220;28;20226;-54
2023/09/07 04:51:41;;;;;;;12.27;11.07;;;15.20;99.90;;;;;;5032723;28;20552;-54
2023/09/07 04:54:06;;;;;;;13.80;12.30;;;15.20;99.90;;;;;;5031777;28;20191;-53
2023/09/07 04:56:32;;;;;;;13.63;11.67;;;15.20;99.90;;;;;;5032680;28;20288;-53
2023/09/07 04:58:57;;;;;;;18.00;12.13;;;15.20;99.90;;;;;;5032949;28;20816;-54
2023/09/07 05:01:23;;;;;;;13.43;11.27;;;15.20;99.90;;;;;;5032917;28;20187;-53
2023/09/07 05:03:51;;;;;;;14.17;12.67;;;15.20;99.90;;;;;;5034195;28;20542;-54
2023/09/07 05:06:16;;;;;;;14.57;13.03;;;15.30;99.90;;;;;;5035239;28;20478;-53
2023/09/07 05:08:42;;;;;;;13.60;12.20;;;15.30;99.90;;;;;;5032490;28;21053;-55
2023/09/07 05:11:07;;;;;;;14.33;11.00;;;15.30;99.90;;;;;;5032190;28;20222;-54
2023/09/07 05:13:33;;;;;;;14.63;12.10;;;15.30;99.90;;;;;;5031861;28;20285;-54
2023/09/07 05:16:04;;;;;;;12.10;10.90;;;15.40;99.90;;;;;;5031993;28;20334;-54
2023/09/07 05:18:30;;;;;;;13.80;12.50;;;15.40;99.90;;;;;;5034195;28;20194;-54
2023/09/07 05:20:55;;;;;;;14.37;12.87;;;15.40;99.90;;;;;;5031545;28;20435;-55
2023/09/07 05:23:22;;;;;;;15.40;13.80;;;15.60;99.90;;;;;;5033218;28;20183;-55
2023/09/07 05:25:52;;;;;;;15.47;13.80;;;15.60;99.90;;;;;;5032153;28;20230;-54
2023/09/07 05:28:19;;;;;;;14.57;13.17;;;15.70;99.90;;;;;;5029278;28;20535;-54
2023/09/07 05:30:45;;;;;;;19.40;14.00;;;15.80;99.90;;;;;;5032211;28;20441;-54
2023/09/07 05:33:13;;;;;;;17.90;13.53;;;15.80;99.90;;;;;;5032751;28;20422;-54
2023/09/07 05:35:39;;;;;;;21.13;15.17;;;15.90;99.90;;;;;;5032277;28;20606;-55
2023/09/07 05:38:05;;;;;;;16.60;14.20;;;16.00;99.90;;;;;;5033138;28;20516;-54
2023/09/07 05:40:38;;;;;;;19.30;14.53;;;16.10;99.90;;;;;;5030685;28;20816;-55
2023/09/07 05:43:04;;;;;;;20.00;15.30;;;16.30;99.90;;;;;;5031620;28;20932;-54
2023/09/07 05:45:40;;;;;;;21.70;15.60;;;16.50;99.90;;;;;;5033764;28;20473;-54
2023/09/07 05:48:07;;;;;;;16.73;14.13;;;16.60;99.90;;;;;;5027088;28;20183;-56
2023/09/07 05:50:35;;;;;;;19.90;14.87;;;16.70;99.90;;;;;;5033784;28;20434;-55
2023/09/07 05:53:01;;;;;;;18.20;15.07;;;16.80;99.90;;;;;;5032340;28;20479;-54
2023/09/07 05:55:26;;;;;;;17.30;15.50;;;16.90;99.90;;;;;;5030857;28;20478;-53
2023/09/07 05:57:55;;;;;;;24.10;14.90;;;17.00;99.90;;;;;;5030289;28;20447;-54
2023/09/07 06:00:20;;;;;;;16.03;14.37;;;17.20;99.90;;;;;;5031566;28;20181;-53
2023/09/07 06:02:47;;;;;;;14.60;13.13;;;17.30;99.90;;;;;;5031609;28;21046;-54
2023/09/07 06:05:13;;;;;;;15.00;13.50;;;17.40;99.90;;;;;;5030755;28;20275;-55
2023/09/07 06:07:38;;;;;;;14.70;12.87;;;17.50;99.90;;;;;;5032080;28;20452;-55
2023/09/07 06:10:05;;;;;;;14.37;12.70;;;17.70;99.90;;;;;;5032036;28;20444;-55
2023/09/07 06:12:31;;;;;;;13.87;11.90;;;17.80;99.90;;;;;;5030955;28;20197;-55
2023/09/07 06:14:57;;;;;;;13.27;11.90;;;18.10;99.90;;;;;;5031012;28;20813;-53
2023/09/07 06:17:23;;;;;;;13.07;10.90;;;18.30;99.90;;;;;;5030359;28;20452;-55
2023/09/07 06:19:48;;;;;;;12.10;10.97;;;18.50;99.90;;;;;;5031844;28;20185;-55
2023/09/07 06:22:14;;;;;;;13.63;10.93;;;18.70;99.90;;;;;;5036255;28;20679;-55
2023/09/07 06:24:39;;;;;;;11.70;10.53;;;18.80;17.00;;;;;;5044584;28;20221;-53
2023/09/07 06:27:05;;;;;;;10.87;9.87;;;19.00;1.00;;;;;;5043157;28;20305;-54
2023/09/07 06:29:31;;;;;;;13.17;10.30;;;19.20;1.00;;;;;;5036537;28;20194;-55
2023/09/07 06:31:56;;;;;;;11.07;9.97;;;19.40;99.90;;;;;;5036195;28;20547;-54
2023/09/07 06:34:22;;;;;;;11.23;9.47;;;19.50;99.90;;;;;;5035176;28;20191;-54
2023/09/07 06:36:47;;;;;;;10.03;8.87;;;19.70;1.00;;;;;;5036107;28;20194;-54
2023/09/07 06:39:13;;;;;;;10.07;9.03;;;19.80;1.00;;;;;;5034269;28;20187;-55
2023/09/07 06:41:38;;;;;;;11.97;10.03;;;20.00;99.90;;;;;;5041794;28;20248;-54
2023/09/07 06:44:04;;;;;;;10.10;8.53;;;20.20;1.00;;;;;;5035700;28;20184;-54
2023/09/07 06:46:30;;;;;;;17.73;9.43;;;20.50;99.90;;;;;;5039757;28;20318;-54
2023/09/07 06:48:55;;;;;;;11.13;8.40;;;20.70;99.90;;;;;;5031781;28;20202;-53
2023/09/07 06:51:21;;;;;;;11.77;8.37;;;20.80;99.90;;;;;;5033054;28;20578;-53
2023/09/07 06:53:47;;;;;;;8.83;7.77;;;21.10;99.90;;;;;;5035419;28;20183;-48
2023/09/07 06:56:12;;;;;;;9.67;8.43;;;21.30;89.00;;;;;;5029354;28;20200;-46
2023/09/07 06:58:38;;;;;;;9.50;8.30;;;21.60;18.80;;;;;;5034699;28;20197;-48
2023/09/07 07:01:04;;;;;;;10.83;8.27;;;21.80;1.00;;;;;;5035857;28;20195;-49
2023/09/07 07:03:30;;;;;;;10.77;9.70;;;22.00;1.00;;;;;;5036354;28;20195;-48
2023/09/07 07:05:56;;;;;;;9.63;8.33;;;22.20;1.00;;;;;;5033084;28;20564;-49
2023/09/07 07:08:23;;;;;;;14.33;8.40;;;22.40;1.00;;;;;;5030394;28;20930;-48
2023/09/07 07:10:49;;;;;;;9.50;8.40;;;22.60;1.00;;;;;;5035464;28;20782;-47
2023/09/07 07:13:14;;;;;;;10.00;7.43;;;23.00;1.00;;;;;;5036200;28;20509;-46
2023/09/07 07:15:42;;;;;;;10.53;7.80;;;23.30;1.00;;;;;;5036131;28;20214;-46
2023/09/07 07:18:10;;;;;;;9.07;7.40;;;23.60;1.00;;;;;;5036150;28;20179;-47
2023/09/07 07:20:38;;;;;;;8.77;7.23;;;23.80;1.00;;;;;;5033612;28;20438;-48
2023/09/07 07:23:04;;;;;;;8.03;7.23;;;24.00;1.00;;;;;;5034092;28;20474;-48
2023/09/07 07:25:33;;;;;;;11.33;7.97;;;24.30;1.00;;;;;;5035102;28;20798;-48
2023/09/07 07:27:59;;;;;;;11.03;7.70;;;24.70;1.00;;;;;;5036065;28;20306;-47
2023/09/07 07:30:29;;;;;;;10.93;7.30;;;25.00;1.00;;;;;;5035324;28;20507;-47
2023/09/07 07:32:55;;;;;;;8.23;7.30;;;25.30;1.00;;;;;;5031973;28;20430;-48
2023/09/07 07:35:21;;;;;;;8.13;7.33;;;25.60;1.00;;;;;;5035605;28;20767;-48
2023/09/07 07:37:46;;;;;;;7.93;6.97;;;25.90;1.00;;;;;;5035680;28;20183;-48
2023/09/07 07:40:12;;;;;;;9.40;6.90;;;26.20;1.00;;;;;;5034740;28;20191;-47
2023/09/07 07:42:37;;;;;;;10.17;6.97;;;26.50;1.00;;;;;;5035526;28;20214;-47
2023/09/07 07:45:03;;;;;;;12.20;7.37;;;26.80;1.00;;;;;;5034401;28;20545;-47
2023/09/07 07:47:29;;;;;;;9.93;7.10;;;27.00;1.00;;;;;;5035214;28;20191;-46
2023/09/07 07:49:54;;;;;;;7.47;6.77;;;27.20;1.00;;;;;;5034804;28;20767;-47
2023/09/07 07:52:21;;;;;;;7.40;6.20;;;27.30;1.00;;;;;;5033340;28;21658;-47
2023/09/07 07:54:47;;;;;;;8.63;6.87;;;27.50;1.00;;;;;;5034862;28;20183;-48
2023/09/07 07:57:13;;;;;;;7.27;6.27;;;27.80;1.00;;;;;;5034957;28;20488;-45
2023/09/07 07:59:38;;;;;;;6.83;6.23;;;28.10;1.00;;;;;;5034477;28;20713;-46
2023/09/07 08:02:05;;;;;;;10.43;6.80;;;28.30;1.00;;;;;;5036859;28;20184;-48
2023/09/07 08:04:32;;;;;;;11.63;6.67;;;28.50;1.00;;;;;;5035487;28;20317;-45
2023/09/07 08:07:03;;;;;;;8.83;5.97;;;28.70;1.00;;;;;;5034170;28;20575;-44
2023/09/07 08:09:32;;;;;;;10.90;6.50;;;29.00;1.00;;;;;;5035801;28;20426;-45
2023/09/07 08:11:58;;;;;;;7.20;6.07;;;29.20;1.00;;;;;;5034455;28;20441;-44
2023/09/07 08:14:25;;;;;;;6.40;5.80;;;29.40;1.00;;;;;;5035175;28;20512;-45
2023/09/07 08:16:51;;;;;;;8.70;6.20;;;29.60;1.00;;;;;;5035192;28;20241;-45
2023/09/07 08:19:17;;;;;;;9.50;6.33;;;29.70;1.00;;;;;;5041808;28;20479;-46
2023/09/07 08:21:44;;;;;;;21.73;6.63;;;29.90;1.00;;;;;;5033667;28;20477;-47
2023/09/07 08:24:09;;;;;;;6.90;5.40;;;30.20;1.00;;;;;;5034741;28;20214;-47
2023/09/07 08:26:35;;;;;;;9.60;5.73;;;30.40;1.00;;;;;;5033079;28;20855;-49
2023/09/07 08:29:05;;;;;;;8.07;5.80;;;30.70;1.00;;;;;;5033889;28;20218;-48
2023/09/07 08:31:33;;;;;;;8.10;6.17;;;30.90;1.00;;;;;;5026668;28;20472;-48
2023/09/07 08:34:04;;;;;;;7.43;5.60;;;31.00;1.00;;;;;;5033315;28;20434;-47
2023/09/07 08:36:33;;;;;;;8.00;6.10;;;31.00;1.00;;;;;;5034220;28;20609;-47
2023/09/07 08:39:07;;;;;;;6.30;5.50;;;31.20;1.00;;;;;;5034967;28;20430;-47
2023/09/07 08:41:41;;;;;;;8.27;5.90;;;31.30;1.00;;;;;;5034729;28;20430;-47
2023/09/07 08:44:08;;;;;;;7.30;5.57;;;31.20;1.00;;;;;;5032750;28;20528;-47
2023/09/07 08:46:35;;;;;;;7.33;5.93;;;31.40;1.00;;;;;;5034549;28;20477;-47
2023/09/07 08:49:02;;;;;;;7.70;6.13;;;31.50;1.00;;;;;;5034408;28;20438;-47
2023/09/07 08:51:28;;;;;;;7.93;6.00;;;31.60;1.00;;;;;;5033862;28;20922;-47
2023/09/07 08:53:56;;;;;;;7.60;5.97;;;31.70;99.90;;;;;;5033300;28;20477;-46
2023/09/07 08:56:22;;;;;;;6.90;5.97;;;31.70;99.90;;;;;;5033865;28;20245;-47
2023/09/07 08:58:51;;;;;;;7.63;6.10;;;31.70;99.90;;;;;;5034319;28;20426;-48
2023/09/07 09:01:21;;;;;;;6.90;5.83;;;31.50;99.90;;;;;;5034154;28;20434;-48
2023/09/07 09:03:48;;;;;;;7.53;5.37;;;31.30;99.90;;;;;;5033756;28;20940;-47
2023/09/07 09:06:16;;;;;;;6.77;6.17;;;31.30;99.90;;;;;;5030346;28;20536;-48
2023/09/07 09:08:52;;;;;;;10.53;6.10;;;31.30;99.90;;;;;;5025645;28;20426;-47
2023/09/07 09:11:19;;;;;;;8.07;6.00;;;31.40;99.90;;;;;;5032916;28;20438;-48
2023/09/07 09:13:45;;;;;;;7.13;6.00;;;31.30;99.90;;;;;;5034129;28;20430;-47
2023/09/07 09:16:12;;;;;;;7.37;6.00;;;31.20;99.90;;;;;;5034257;28;20476;-48
2023/09/07 09:18:39;;;;;;;6.20;5.57;;;30.90;99.90;;;;;;5033670;28;20986;-49
2023/09/07 09:21:05;;;;;;;6.43;5.73;;;30.80;99.90;;;;;;5032939;28;20473;-47
2023/09/07 09:23:36;;;;;;;6.70;5.77;;;30.60;99.90;;;;;;5033097;28;20509;-47
2023/09/07 09:26:05;;;;;;;8.30;5.57;;;30.20;99.90;;;;;;5033906;28;20513;-48
2023/09/07 09:28:34;;;;;;;7.50;6.03;;;29.80;99.90;;;;;;5032171;28;20936;-49
2023/09/07 09:31:02;;;;;;;9.30;5.90;;;29.40;99.90;;;;;;5033554;28;20449;-47
2023/09/07 09:33:31;;;;;;;7.50;5.90;;;29.10;99.90;;;;;;5033379;28;20484;-48
2023/09/07 09:35:57;;;;;;;9.83;6.70;;;28.90;99.90;;;;;;5033729;28;20781;-47
2023/09/07 09:38:23;;;;;;;7.30;5.27;;;28.80;99.90;;;;;;5033495;28;20516;-48
2023/09/07 09:40:49;;;;;;;7.97;5.53;;;28.50;99.90;;;;;;5032254;28;20930;-47
2023/09/07 09:43:15;;;;;;;6.97;5.80;;;28.40;99.90;;;;;;5033816;28;20423;-48
2023/09/07 09:45:41;;;;;;;6.47;5.87;;;28.30;99.90;;;;;;5033029;28;20466;-47
2023/09/07 09:48:08;;;;;;;6.73;6.07;;;28.10;99.90;;;;;;5033287;28;20480;-48
2023/09/07 09:50:38;;;;;;;12.40;6.00;;;27.90;99.90;;;;;;5031198;28;20930;-47
2023/09/07 09:53:07;;;;;;;7.63;5.53;;;27.80;99.90;;;;;;5033528;28;20496;-46
2023/09/07 09:55:34;;;;;;;7.13;5.77;;;27.70;99.90;;;;;;5032453;28;20427;-48
2023/09/07 09:58:00;;;;;;;6.83;6.10;;;27.70;99.90;;;;;;5033426;28;20438;-47
2023/09/07 10:00:26;;;;;;;7.77;5.83;;;27.70;99.90;;;;;;5032639;28;20430;-48
2023/09/07 10:03:08;;;;;;;6.63;5.57;;;27.70;99.90;;;;;;5033407;28;20286;-47
2023/09/07 10:05:34;;;;;;;6.90;5.80;;;27.80;1.00;;;;;;5032895;28;20835;-48
2023/09/07 10:08:08;;;;;;;6.97;6.03;;;27.90;99.90;;;;;;5032497;28;20472;-47
2023/09/07 10:10:36;;;;;;;8.87;6.40;;;28.10;99.90;;;;;;5032550;28;20523;-48
2023/09/07 10:13:03;;;;;;;6.40;5.80;;;28.20;99.90;;;;;;5024241;28;20910;-47
2023/09/07 10:15:29;;;;;;;11.93;6.03;;;28.20;99.90;;;;;;5031811;28;20442;-46
2023/09/07 10:18:05;;;;;;;7.33;6.27;;;28.10;99.90;;;;;;5033033;28;20437;-47
2023/09/07 10:20:54;;;;;;;5.90;5.30;;;28.30;99.90;;;;;;5033311;28;20525;-47
2023/09/07 10:23:20;;;;;;;7.00;5.17;;;28.70;99.90;;;;;;5033265;28;20437;-46
2023/09/07 10:25:50;;;;;;;6.13;5.20;;;29.00;99.90;;;;;;5033012;28;20462;-46
2023/09/07 10:28:20;;;;;;;8.67;5.20;;;29.20;99.90;;;;;;5032202;28;20579;-46
2023/09/07 10:31:03;;;;;;;6.87;5.07;;;29.30;99.90;;;;;;5032854;28;20434;-46
2023/09/07 10:33:29;;;;;;;6.23;5.10;;;29.50;99.90;;;;;;5032191;28;20469;-47
2023/09/07 10:35:55;;;;;;;6.10;4.83;;;29.40;99.90;;;;;;5032296;28;20465;-46
2023/09/07 10:38:20;;;;;;;9.87;5.30;;;29.60;99.90;;;;;;5032983;28;20934;-47
2023/09/07 10:40:47;;;;;;;7.70;4.90;;;30.10;99.90;;;;;;5032181;28;20219;-48
2023/09/07 10:43:13;;;;;;;5.20;4.70;;;30.60;99.90;;;;;;5033229;28;20206;-47
2023/09/07 10:45:38;;;;;;;5.10;4.60;;;30.80;99.90;;;;;;5032968;28;20794;-46
2023/09/07 10:48:05;;;;;;;7.70;5.30;;;31.40;99.90;;;;;;5032907;28;20520;-47
2023/09/07 10:50:41;;;;;;;6.37;4.90;;;31.80;99.90;;;;;;5031786;28;20565;-47
2023/09/07 10:53:07;;;;;;;5.80;4.90;;;32.20;99.90;;;;;;5031521;28;20406;-47
2023/09/07 10:55:38;;;;;;;7.47;4.50;;;32.50;99.90;;;;;;5032020;28;20773;-47
2023/09/07 10:58:04;;;;;;;6.40;4.30;;;33.00;99.90;;;;;;5032469;28;20186;-47
2023/09/07 11:00:29;;;;;;;6.57;4.60;;;33.60;99.90;;;;;;5032576;28;20786;-47
2023/09/07 11:02:55;;;;;;;4.97;4.57;;;34.10;99.90;;;;;;5030748;28;20184;-48
2023/09/07 11:05:21;;;;;;;9.07;7.03;;;34.50;99.90;;;;;;5033823;28;20636;-48
2023/09/07 11:07:46;;;;;;;8.53;4.47;;;34.80;99.90;;;;;;5038631;28;20188;-49
2023/09/07 11:10:12;;;;;;;6.27;4.40;;;35.10;99.90;;;;;;5036367;28;20533;-49
2023/09/07 11:12:39;;;;;;;8.30;3.90;;;35.10;99.90;;;;;;5034656;28;20624;-49
2023/09/07 11:15:08;;;;;;;6.30;4.70;;;35.30;99.90;;;;;;5036300;28;20214;-48
2023/09/07 11:17:38;;;;;;;4.37;3.90;;;35.40;99.90;;;;;;5035896;28;20430;-48
2023/09/07 11:20:06;;;;;;;5.30;4.43;;;35.30;99.90;;;;;;5035858;28;20437;-48
2023/09/07 11:22:32;;;;;;;4.80;4.27;;;35.30;99.90;;;;;;5036037;28;20868;-49
2023/09/07 11:25:00;;;;;;;7.33;4.00;;;35.60;99.90;;;;;;5035609;28;20513;-48
2023/09/07 11:27:29;;;;;;;9.00;4.97;;;35.70;99.90;;;;;;5035578;28;20223;-49
2023/09/07 11:29:56;;;;;;;5.60;4.37;;;35.90;99.90;;;;;;5035205;28;20438;-50
2023/09/07 11:32:23;;;;;;;5.33;4.13;;;36.00;99.90;;;;;;5035386;28;20419;-51
2023/09/07 11:34:51;;;;;;;7.13;4.07;;;36.00;99.90;;;;;;5034762;28;20513;-50
2023/09/07 11:37:18;;;;;;;7.13;4.30;;;35.90;99.90;;;;;;5034175;28;20804;-47
2023/09/07 11:39:44;;;;;;;5.33;4.30;;;36.00;99.90;;;;;;5035717;28;20441;-50
2023/09/07 11:42:10;;;;;;;5.90;3.97;;;36.30;99.90;;;;;;5035387;28;20976;-49
2023/09/07 11:44:35;;;;;;;6.60;4.10;;;36.40;99.90;;;;;;5034498;28;20422;-48
2023/09/07 11:47:01;;;;;;;6.60;4.13;;;36.40;99.90;;;;;;5034460;28;20261;-48
2023/09/07 11:49:26;;;;;;;4.30;3.90;;;36.60;99.90;;;;;;5035169;28;20191;-49
2023/09/07 11:51:52;;;;;;;4.47;4.03;;;36.60;99.90;;;;;;5035569;28;20183;-49
2023/09/07 11:54:17;;;;;;;5.73;3.90;;;36.60;99.90;;;;;;5035001;28;20179;-49
2023/09/07 11:56:45;;;;;;;4.87;4.37;;;36.60;99.90;;;;;;5035836;28;20180;-49
2023/09/07 11:59:11;;;;;;;6.30;4.20;;;36.80;99.90;;;;;;5035176;28;20219;-49
2023/09/07 12:01:38;;;;;;;11.10;3.93;;;37.10;99.90;;;;;;5035321;28;20949;-49
2023/09/07 12:04:05;;;;;;;4.37;3.97;;;37.30;99.90;;;;;;5035309;28;20188;-49
2023/09/07 12:06:31;;;;;;;4.30;3.80;;;37.40;99.90;;;;;;5027343;28;20489;-49
2023/09/07 12:09:01;;;;;;;6.43;3.70;;;37.40;99.90;;;;;;5035413;28;20472;-49
2023/09/07 12:11:27;;;;;;;4.30;3.87;;;37.20;99.90;;;;;;5033016;28;20596;-50
2023/09/07 12:13:52;;;;;;;5.47;4.30;;;37.00;99.90;;;;;;5032266;28;20437;-49
2023/09/07 12:16:18;;;;;;;8.33;3.97;;;36.70;99.90;;;;;;5034581;28;20184;-49
2023/09/07 12:18:43;;;;;;;4.20;3.70;;;36.60;99.90;;;;;;5033097;28;20195;-49
2023/09/07 12:21:09;;;;;;;5.30;4.17;;;36.80;99.90;;;;;;5032323;28;20239;-49
2023/09/07 12:23:34;;;;;;;6.83;4.50;;;36.80;99.90;;;;;;5027818;28;20180;-49
2023/09/07 12:26:01;;;;;;;6.00;4.50;;;36.70;99.90;;;;;;5032546;28;20254;-49
2023/09/07 12:28:27;;;;;;;7.77;4.60;;;36.20;99.90;;;;;;5036638;28;20190;-51
2023/09/07 12:30:52;;;;;;;14.37;4.50;;;36.10;99.90;;;;;;5041662;28;20447;-49
2023/09/07 12:33:18;;;;;;;5.37;4.97;;;36.20;99.90;;;;;;5032529;28;20485;-49
2023/09/07 12:35:43;;;;;;;4.67;4.37;;;36.40;99.90;;;;;;5033119;28;20183;-50
2023/09/07 12:38:11;;;;;;;15.17;4.40;;;36.60;99.90;;;;;;5034781;28;20278;-50
2023/09/07 12:40:36;;;;;;;5.60;4.13;;;36.70;99.90;;;;;;5032527;28;20249;-49